sensor_id;sensor_type;location;lat;lon;timestamp;P1;durP1;ratioP1;P2;durP2;ratioP2
78148;SDS011;67396;42.664;23.382;2023-12-22T00:01:11;25.60;;;12.77;;
78148;SDS011;67396;42.664;23.382;2023-12-22T00:03:40;26.02;;;13.75;;
78148;SDS011;67396;42.664;23.382;2023-12-22T00:06:10;28.40;;;12.65;;
78148;SDS011;67396;42.664;23.382;2023-12-22T00:08:36;29.35;;;14.38;;
78148;SDS011;67396;42.664;23.382;2023-12-22T00:11:02;31.52;;;14.35;;
78148;SDS011;67396;42.664;23.382;2023-12-22T00:13:28;27.23;;;13.02;;
78148;SDS011;67396;42.664;23.382;2023-12-22T00:15:53;28.33;;;12.98;;
78148;SDS011;67396;42.664;23.382;2023-12-22T00:18:18;28.10;;;13.95;;
78148;SDS011;67396;42.664;23.382;2023-12-22T00:20:44;31.00;;;14.27;;
78148;SDS011;67396;42.664;23.382;2023-12-22T00:23:09;30.13;;;13.57;;
78148;SDS011;67396;42.664;23.382;2023-12-22T00:25:35;26.50;;;11.98;;
78148;SDS011;67396;42.664;23.382;2023-12-22T00:28:00;23.92;;;11.77;;
78148;SDS011;67396;42.664;23.382;2023-12-22T00:32:51;18.52;;;8.45;;
78148;SDS011;67396;42.664;23.382;2023-12-22T00:35:17;17.25;;;9.18;;
78148;SDS011;67396;42.664;23.382;2023-12-22T00:40:08;27.48;;;11.15;;
78148;SDS011;67396;42.664;23.382;2023-12-22T00:42:34;20.80;;;9.13;;
78148;SDS011;67396;42.664;23.382;2023-12-22T00:47:25;15.63;;;9.88;;
78148;SDS011;67396;42.664;23.382;2023-12-22T00:49:51;23.67;;;11.65;;
78148;SDS011;67396;42.664;23.382;2023-12-22T00:52:16;25.38;;;10.25;;
78148;SDS011;67396;42.664;23.382;2023-12-22T00:54:43;20.33;;;9.85;;
78148;SDS011;67396;42.664;23.382;2023-12-22T00:57:09;20.67;;;10.60;;
78148;SDS011;67396;42.664;23.382;2023-12-22T00:59:37;19.27;;;9.60;;
78148;SDS011;67396;42.664;23.382;2023-12-22T01:02:12;20.15;;;10.77;;
78148;SDS011;67396;42.664;23.382;2023-12-22T01:04:44;18.15;;;9.15;;
78148;SDS011;67396;42.664;23.382;2023-12-22T01:07:13;16.63;;;10.20;;
78148;SDS011;67396;42.664;23.382;2023-12-22T01:09:39;24.13;;;10.43;;
78148;SDS011;67396;42.664;23.382;2023-12-22T01:12:05;18.63;;;9.93;;
78148;SDS011;67396;42.664;23.382;2023-12-22T01:14:32;22.27;;;10.95;;
78148;SDS011;67396;42.664;23.382;2023-12-22T01:16:58;22.88;;;10.52;;
78148;SDS011;67396;42.664;23.382;2023-12-22T01:19:25;21.45;;;11.20;;
78148;SDS011;67396;42.664;23.382;2023-12-22T01:21:51;23.92;;;11.50;;
78148;SDS011;67396;42.664;23.382;2023-12-22T01:24:16;25.13;;;11.52;;
78148;SDS011;67396;42.664;23.382;2023-12-22T01:26:42;22.00;;;10.65;;
78148;SDS011;67396;42.664;23.382;2023-12-22T01:29:08;26.30;;;12.23;;
78148;SDS011;67396;42.664;23.382;2023-12-22T01:31:33;19.40;;;10.73;;
78148;SDS011;67396;42.664;23.382;2023-12-22T01:33:59;20.63;;;10.52;;
78148;SDS011;67396;42.664;23.382;2023-12-22T01:36:24;21.88;;;10.57;;
78148;SDS011;67396;42.664;23.382;2023-12-22T01:38:50;27.20;;;11.52;;
78148;SDS011;67396;42.664;23.382;2023-12-22T01:41:15;23.35;;;10.93;;
78148;SDS011;67396;42.664;23.382;2023-12-22T01:43:41;22.13;;;11.43;;
78148;SDS011;67396;42.664;23.382;2023-12-22T01:46:06;25.80;;;11.77;;
78148;SDS011;67396;42.664;23.382;2023-12-22T01:48:34;19.88;;;9.70;;
78148;SDS011;67396;42.664;23.382;2023-12-22T01:51:01;23.05;;;11.25;;
78148;SDS011;67396;42.664;23.382;2023-12-22T01:53:27;20.88;;;11.00;;
78148;SDS011;67396;42.664;23.382;2023-12-22T01:55:54;25.70;;;10.75;;
78148;SDS011;67396;42.664;23.382;2023-12-22T01:58:22;21.98;;;10.90;;
78148;SDS011;67396;42.664;23.382;2023-12-22T02:00:48;24.00;;;11.77;;
78148;SDS011;67396;42.664;23.382;2023-12-22T02:03:14;20.92;;;11.38;;
78148;SDS011;67396;42.664;23.382;2023-12-22T02:05:42;23.25;;;11.05;;
78148;SDS011;67396;42.664;23.382;2023-12-22T02:08:08;23.58;;;11.13;;
78148;SDS011;67396;42.664;23.382;2023-12-22T02:10:35;23.83;;;11.88;;
78148;SDS011;67396;42.664;23.382;2023-12-22T02:13:01;21.80;;;10.55;;
78148;SDS011;67396;42.664;23.382;2023-12-22T02:15:28;24.83;;;11.25;;
78148;SDS011;67396;42.664;23.382;2023-12-22T02:20:19;23.45;;;11.80;;
78148;SDS011;67396;42.664;23.382;2023-12-22T02:22:46;26.90;;;11.75;;
78148;SDS011;67396;42.664;23.382;2023-12-22T02:25:16;29.73;;;13.02;;
78148;SDS011;67396;42.664;23.382;2023-12-22T02:27:45;24.10;;;12.25;;
78148;SDS011;67396;42.664;23.382;2023-12-22T02:30:25;32.10;;;13.75;;
78148;SDS011;67396;42.664;23.382;2023-12-22T02:32:58;29.55;;;14.13;;
78148;SDS011;67396;42.664;23.382;2023-12-22T02:35:28;30.95;;;15.00;;
78148;SDS011;67396;42.664;23.382;2023-12-22T02:37:56;26.05;;;13.90;;
78148;SDS011;67396;42.664;23.382;2023-12-22T02:40:23;30.80;;;15.48;;
78148;SDS011;67396;42.664;23.382;2023-12-22T02:42:51;31.17;;;15.45;;
78148;SDS011;67396;42.664;23.382;2023-12-22T02:45:18;30.25;;;14.27;;
78148;SDS011;67396;42.664;23.382;2023-12-22T02:47:44;29.73;;;15.18;;
78148;SDS011;67396;42.664;23.382;2023-12-22T02:50:10;25.70;;;13.77;;
78148;SDS011;67396;42.664;23.382;2023-12-22T02:52:38;27.33;;;14.82;;
78148;SDS011;67396;42.664;23.382;2023-12-22T02:55:03;30.02;;;14.82;;
78148;SDS011;67396;42.664;23.382;2023-12-22T02:57:30;26.95;;;14.73;;
78148;SDS011;67396;42.664;23.382;2023-12-22T02:59:55;30.05;;;15.55;;
78148;SDS011;67396;42.664;23.382;2023-12-22T03:02:22;33.47;;;14.32;;
78148;SDS011;67396;42.664;23.382;2023-12-22T03:04:47;35.97;;;14.98;;
78148;SDS011;67396;42.664;23.382;2023-12-22T03:07:13;36.83;;;18.15;;
78148;SDS011;67396;42.664;23.382;2023-12-22T03:09:39;33.00;;;15.13;;
78148;SDS011;67396;42.664;23.382;2023-12-22T03:12:06;27.42;;;13.85;;
78148;SDS011;67396;42.664;23.382;2023-12-22T03:14:32;27.75;;;14.65;;
78148;SDS011;67396;42.664;23.382;2023-12-22T03:17:02;30.98;;;12.38;;
78148;SDS011;67396;42.664;23.382;2023-12-22T03:19:28;26.80;;;12.48;;
78148;SDS011;67396;42.664;23.382;2023-12-22T03:21:54;28.75;;;12.88;;
78148;SDS011;67396;42.664;23.382;2023-12-22T03:24:21;26.48;;;12.68;;
78148;SDS011;67396;42.664;23.382;2023-12-22T03:26:51;27.15;;;12.63;;
78148;SDS011;67396;42.664;23.382;2023-12-22T03:29:17;31.73;;;14.88;;
78148;SDS011;67396;42.664;23.382;2023-12-22T03:31:43;28.55;;;14.30;;
78148;SDS011;67396;42.664;23.382;2023-12-22T03:34:09;26.95;;;13.77;;
78148;SDS011;67396;42.664;23.382;2023-12-22T03:36:34;25.08;;;12.73;;
78148;SDS011;67396;42.664;23.382;2023-12-22T03:39:00;26.92;;;13.05;;
78148;SDS011;67396;42.664;23.382;2023-12-22T03:41:27;42.20;;;15.50;;
78148;SDS011;67396;42.664;23.382;2023-12-22T03:43:54;43.00;;;15.95;;
78148;SDS011;67396;42.664;23.382;2023-12-22T03:46:20;37.13;;;16.33;;
78148;SDS011;67396;42.664;23.382;2023-12-22T03:51:11;27.40;;;10.68;;
78148;SDS011;67396;42.664;23.382;2023-12-22T03:53:38;22.13;;;10.77;;
78148;SDS011;67396;42.664;23.382;2023-12-22T03:56:04;22.50;;;11.43;;
78148;SDS011;67396;42.664;23.382;2023-12-22T03:58:29;28.65;;;13.05;;
78148;SDS011;67396;42.664;23.382;2023-12-22T04:00:55;27.63;;;10.90;;
78148;SDS011;67396;42.664;23.382;2023-12-22T04:03:21;25.63;;;12.77;;
78148;SDS011;67396;42.664;23.382;2023-12-22T04:05:47;42.15;;;18.45;;
78148;SDS011;67396;42.664;23.382;2023-12-22T04:08:12;51.25;;;19.92;;
78148;SDS011;67396;42.664;23.382;2023-12-22T04:10:38;43.53;;;20.45;;
78148;SDS011;67396;42.664;23.382;2023-12-22T04:13:03;33.17;;;15.52;;
78148;SDS011;67396;42.664;23.382;2023-12-22T04:15:29;40.80;;;17.65;;
78148;SDS011;67396;42.664;23.382;2023-12-22T04:17:54;36.45;;;16.05;;
78148;SDS011;67396;42.664;23.382;2023-12-22T04:20:20;39.20;;;17.50;;
78148;SDS011;67396;42.664;23.382;2023-12-22T04:22:46;32.00;;;13.20;;
78148;SDS011;67396;42.664;23.382;2023-12-22T04:25:11;36.08;;;14.50;;
78148;SDS011;67396;42.664;23.382;2023-12-22T04:27:37;24.73;;;11.70;;
78148;SDS011;67396;42.664;23.382;2023-12-22T04:30:02;28.33;;;13.38;;
78148;SDS011;67396;42.664;23.382;2023-12-22T04:32:28;28.55;;;13.00;;
78148;SDS011;67396;42.664;23.382;2023-12-22T04:34:53;35.78;;;16.00;;
78148;SDS011;67396;42.664;23.382;2023-12-22T04:37:19;45.60;;;18.75;;
78148;SDS011;67396;42.664;23.382;2023-12-22T04:39:44;41.50;;;19.30;;
78148;SDS011;67396;42.664;23.382;2023-12-22T04:42:13;28.63;;;13.23;;
78148;SDS011;67396;42.664;23.382;2023-12-22T04:44:38;25.17;;;12.25;;
78148;SDS011;67396;42.664;23.382;2023-12-22T04:47:04;29.13;;;14.07;;
78148;SDS011;67396;42.664;23.382;2023-12-22T04:49:29;27.85;;;13.18;;
78148;SDS011;67396;42.664;23.382;2023-12-22T04:51:55;26.50;;;13.32;;
78148;SDS011;67396;42.664;23.382;2023-12-22T04:54:20;29.60;;;15.05;;
78148;SDS011;67396;42.664;23.382;2023-12-22T04:56:46;28.33;;;12.70;;
78148;SDS011;67396;42.664;23.382;2023-12-22T04:59:11;23.33;;;11.55;;
78148;SDS011;67396;42.664;23.382;2023-12-22T05:01:37;24.30;;;11.63;;
78148;SDS011;67396;42.664;23.382;2023-12-22T05:04:02;21.35;;;12.30;;
78148;SDS011;67396;42.664;23.382;2023-12-22T05:06:28;24.98;;;12.60;;
78148;SDS011;67396;42.664;23.382;2023-12-22T05:08:56;20.95;;;9.82;;
78148;SDS011;67396;42.664;23.382;2023-12-22T05:11:23;18.27;;;9.23;;
78148;SDS011;67396;42.664;23.382;2023-12-22T05:13:49;22.20;;;10.65;;
78148;SDS011;67396;42.664;23.382;2023-12-22T05:16:14;20.70;;;10.75;;
78148;SDS011;67396;42.664;23.382;2023-12-22T05:18:40;21.95;;;10.02;;
78148;SDS011;67396;42.664;23.382;2023-12-22T05:21:05;17.15;;;8.40;;
78148;SDS011;67396;42.664;23.382;2023-12-22T05:23:31;16.48;;;8.57;;
78148;SDS011;67396;42.664;23.382;2023-12-22T05:25:57;17.83;;;9.50;;
78148;SDS011;67396;42.664;23.382;2023-12-22T05:28:23;18.80;;;10.00;;
78148;SDS011;67396;42.664;23.382;2023-12-22T05:30:55;18.42;;;9.50;;
78148;SDS011;67396;42.664;23.382;2023-12-22T05:33:21;18.15;;;9.77;;
78148;SDS011;67396;42.664;23.382;2023-12-22T05:35:46;19.63;;;9.15;;
78148;SDS011;67396;42.664;23.382;2023-12-22T05:38:12;18.05;;;8.23;;
78148;SDS011;67396;42.664;23.382;2023-12-22T05:40:37;18.63;;;9.18;;
78148;SDS011;67396;42.664;23.382;2023-12-22T05:43:03;13.93;;;7.55;;
78148;SDS011;67396;42.664;23.382;2023-12-22T05:45:28;13.35;;;8.15;;
78148;SDS011;67396;42.664;23.382;2023-12-22T05:47:54;19.95;;;9.95;;
78148;SDS011;67396;42.664;23.382;2023-12-22T05:50:19;23.15;;;11.27;;
78148;SDS011;67396;42.664;23.382;2023-12-22T05:52:45;25.23;;;11.38;;
78148;SDS011;67396;42.664;23.382;2023-12-22T05:55:10;23.30;;;11.27;;
78148;SDS011;67396;42.664;23.382;2023-12-22T05:57:36;20.40;;;11.02;;
78148;SDS011;67396;42.664;23.382;2023-12-22T06:00:02;20.85;;;9.52;;
78148;SDS011;67396;42.664;23.382;2023-12-22T06:02:32;17.60;;;9.55;;
78148;SDS011;67396;42.664;23.382;2023-12-22T06:04:58;21.92;;;11.07;;
78148;SDS011;67396;42.664;23.382;2023-12-22T06:07:23;18.55;;;10.55;;
78148;SDS011;67396;42.664;23.382;2023-12-22T06:09:49;22.08;;;11.73;;
78148;SDS011;67396;42.664;23.382;2023-12-22T06:12:14;18.02;;;10.30;;
78148;SDS011;67396;42.664;23.382;2023-12-22T06:14:40;17.60;;;9.48;;
78148;SDS011;67396;42.664;23.382;2023-12-22T06:17:06;16.08;;;9.75;;
78148;SDS011;67396;42.664;23.382;2023-12-22T06:19:31;17.55;;;9.52;;
78148;SDS011;67396;42.664;23.382;2023-12-22T06:21:57;24.42;;;11.25;;
78148;SDS011;67396;42.664;23.382;2023-12-22T06:24:23;17.88;;;10.43;;
78148;SDS011;67396;42.664;23.382;2023-12-22T06:26:49;23.58;;;12.02;;
78148;SDS011;67396;42.664;23.382;2023-12-22T06:29:15;25.20;;;11.63;;
78148;SDS011;67396;42.664;23.382;2023-12-22T06:31:40;24.80;;;12.40;;
78148;SDS011;67396;42.664;23.382;2023-12-22T06:34:06;17.65;;;10.10;;
78148;SDS011;67396;42.664;23.382;2023-12-22T06:36:31;35.40;;;17.33;;
78148;SDS011;67396;42.664;23.382;2023-12-22T06:38:57;26.30;;;14.05;;
78148;SDS011;67396;42.664;23.382;2023-12-22T06:41:27;25.08;;;12.55;;
78148;SDS011;67396;42.664;23.382;2023-12-22T06:43:54;24.45;;;11.20;;
78148;SDS011;67396;42.664;23.382;2023-12-22T06:46:25;24.00;;;11.52;;
78148;SDS011;67396;42.664;23.382;2023-12-22T06:48:51;17.85;;;10.52;;
78148;SDS011;67396;42.664;23.382;2023-12-22T06:51:21;17.88;;;10.40;;
78148;SDS011;67396;42.664;23.382;2023-12-22T06:53:48;30.70;;;12.30;;
78148;SDS011;67396;42.664;23.382;2023-12-22T06:56:17;24.70;;;11.80;;
78148;SDS011;67396;42.664;23.382;2023-12-22T06:58:45;24.45;;;12.10;;
78148;SDS011;67396;42.664;23.382;2023-12-22T07:01:21;24.02;;;12.27;;
78148;SDS011;67396;42.664;23.382;2023-12-22T07:03:49;25.73;;;12.93;;
78148;SDS011;67396;42.664;23.382;2023-12-22T07:06:15;21.42;;;12.50;;
78148;SDS011;67396;42.664;23.382;2023-12-22T07:08:42;99.38;;;46.47;;
78148;SDS011;67396;42.664;23.382;2023-12-22T07:11:08;25.05;;;13.13;;
78148;SDS011;67396;42.664;23.382;2023-12-22T07:13:34;22.02;;;11.30;;
78148;SDS011;67396;42.664;23.382;2023-12-22T07:16:00;26.45;;;11.82;;
78148;SDS011;67396;42.664;23.382;2023-12-22T07:18:27;25.98;;;12.50;;
78148;SDS011;67396;42.664;23.382;2023-12-22T07:20:57;27.73;;;12.63;;
78148;SDS011;67396;42.664;23.382;2023-12-22T07:23:24;21.63;;;11.60;;
78148;SDS011;67396;42.664;23.382;2023-12-22T07:25:49;22.90;;;11.18;;
78148;SDS011;67396;42.664;23.382;2023-12-22T07:28:15;25.98;;;11.82;;
78148;SDS011;67396;42.664;23.382;2023-12-22T07:30:41;19.20;;;9.65;;
78148;SDS011;67396;42.664;23.382;2023-12-22T07:33:06;25.42;;;10.52;;
78148;SDS011;67396;42.664;23.382;2023-12-22T07:35:32;23.73;;;12.00;;
78148;SDS011;67396;42.664;23.382;2023-12-22T07:37:58;24.23;;;12.20;;
78148;SDS011;67396;42.664;23.382;2023-12-22T07:40:23;20.90;;;12.02;;
78148;SDS011;67396;42.664;23.382;2023-12-22T07:42:49;65.90;;;41.47;;
78148;SDS011;67396;42.664;23.382;2023-12-22T07:45:15;33.80;;;19.77;;
78148;SDS011;67396;42.664;23.382;2023-12-22T07:47:41;24.75;;;12.75;;
78148;SDS011;67396;42.664;23.382;2023-12-22T07:50:07;19.55;;;9.65;;
78148;SDS011;67396;42.664;23.382;2023-12-22T07:52:34;20.83;;;10.85;;
78148;SDS011;67396;42.664;23.382;2023-12-22T07:55:05;18.75;;;10.23;;
78148;SDS011;67396;42.664;23.382;2023-12-22T07:57:31;17.30;;;9.77;;
78148;SDS011;67396;42.664;23.382;2023-12-22T07:59:57;15.35;;;7.78;;
78148;SDS011;67396;42.664;23.382;2023-12-22T08:02:22;18.70;;;8.40;;
78148;SDS011;67396;42.664;23.382;2023-12-22T08:04:48;24.95;;;11.43;;
78148;SDS011;67396;42.664;23.382;2023-12-22T08:07:15;23.27;;;12.07;;
78148;SDS011;67396;42.664;23.382;2023-12-22T08:09:41;26.60;;;13.02;;
78148;SDS011;67396;42.664;23.382;2023-12-22T08:12:07;22.25;;;11.32;;
78148;SDS011;67396;42.664;23.382;2023-12-22T08:14:32;20.60;;;10.20;;
78148;SDS011;67396;42.664;23.382;2023-12-22T08:16:58;22.30;;;10.73;;
78148;SDS011;67396;42.664;23.382;2023-12-22T08:19:23;18.92;;;10.70;;
78148;SDS011;67396;42.664;23.382;2023-12-22T08:21:51;27.30;;;12.98;;
78148;SDS011;67396;42.664;23.382;2023-12-22T08:24:17;19.73;;;11.13;;
78148;SDS011;67396;42.664;23.382;2023-12-22T08:26:43;20.10;;;11.23;;
78148;SDS011;67396;42.664;23.382;2023-12-22T08:29:08;20.55;;;11.57;;
78148;SDS011;67396;42.664;23.382;2023-12-22T08:31:34;19.10;;;10.45;;
78148;SDS011;67396;42.664;23.382;2023-12-22T08:34:00;24.70;;;13.07;;
78148;SDS011;67396;42.664;23.382;2023-12-22T08:36:25;20.35;;;10.88;;
78148;SDS011;67396;42.664;23.382;2023-12-22T08:38:50;26.50;;;11.88;;
78148;SDS011;67396;42.664;23.382;2023-12-22T08:41:16;22.65;;;11.38;;
78148;SDS011;67396;42.664;23.382;2023-12-22T08:43:42;23.33;;;12.57;;
78148;SDS011;67396;42.664;23.382;2023-12-22T08:46:07;27.95;;;12.40;;
78148;SDS011;67396;42.664;23.382;2023-12-22T08:48:34;25.48;;;13.38;;
78148;SDS011;67396;42.664;23.382;2023-12-22T08:51:00;26.15;;;12.65;;
78148;SDS011;67396;42.664;23.382;2023-12-22T08:53:26;97.28;;;46.45;;
78148;SDS011;67396;42.664;23.382;2023-12-22T08:55:55;28.83;;;15.80;;
78148;SDS011;67396;42.664;23.382;2023-12-22T08:58:21;27.85;;;17.25;;
78148;SDS011;67396;42.664;23.382;2023-12-22T09:00:47;27.45;;;11.95;;
78148;SDS011;67396;42.664;23.382;2023-12-22T09:03:13;20.95;;;11.90;;
78148;SDS011;67396;42.664;23.382;2023-12-22T09:05:40;23.30;;;12.57;;
78148;SDS011;67396;42.664;23.382;2023-12-22T09:08:06;31.58;;;13.10;;
78148;SDS011;67396;42.664;23.382;2023-12-22T09:10:31;27.02;;;13.02;;
78148;SDS011;67396;42.664;23.382;2023-12-22T09:12:57;25.05;;;14.05;;
78148;SDS011;67396;42.664;23.382;2023-12-22T09:15:23;29.13;;;15.23;;
78148;SDS011;67396;42.664;23.382;2023-12-22T09:17:48;33.90;;;16.85;;
78148;SDS011;67396;42.664;23.382;2023-12-22T09:20:16;36.33;;;16.92;;
78148;SDS011;67396;42.664;23.382;2023-12-22T09:22:42;29.80;;;15.68;;
78148;SDS011;67396;42.664;23.382;2023-12-22T09:25:07;29.05;;;15.05;;
78148;SDS011;67396;42.664;23.382;2023-12-22T09:27:33;27.42;;;15.68;;
78148;SDS011;67396;42.664;23.382;2023-12-22T09:29:59;115.15;;;54.95;;
78148;SDS011;67396;42.664;23.382;2023-12-22T09:32:25;92.68;;;45.72;;
78148;SDS011;67396;42.664;23.382;2023-12-22T09:34:51;43.35;;;19.88;;
78148;SDS011;67396;42.664;23.382;2023-12-22T09:37:17;34.65;;;18.08;;
78148;SDS011;67396;42.664;23.382;2023-12-22T09:39:43;36.63;;;17.63;;
78148;SDS011;67396;42.664;23.382;2023-12-22T09:42:08;35.72;;;18.88;;
78148;SDS011;67396;42.664;23.382;2023-12-22T09:44:34;36.80;;;18.23;;
78148;SDS011;67396;42.664;23.382;2023-12-22T09:47:04;36.97;;;19.00;;
78148;SDS011;67396;42.664;23.382;2023-12-22T09:49:32;39.03;;;19.77;;
78148;SDS011;67396;42.664;23.382;2023-12-22T09:51:59;33.97;;;19.23;;
78148;SDS011;67396;42.664;23.382;2023-12-22T09:54:28;36.95;;;19.23;;
78148;SDS011;67396;42.664;23.382;2023-12-22T09:56:55;35.33;;;16.75;;
78148;SDS011;67396;42.664;23.382;2023-12-22T09:59:22;37.30;;;17.05;;
78148;SDS011;67396;42.664;23.382;2023-12-22T10:01:49;34.22;;;16.92;;
78148;SDS011;67396;42.664;23.382;2023-12-22T10:04:16;30.63;;;17.75;;
78148;SDS011;67396;42.664;23.382;2023-12-22T10:06:42;31.98;;;17.90;;
78148;SDS011;67396;42.664;23.382;2023-12-22T10:09:10;37.53;;;17.92;;
78148;SDS011;67396;42.664;23.382;2023-12-22T10:11:39;34.75;;;16.35;;
78148;SDS011;67396;42.664;23.382;2023-12-22T10:14:08;35.97;;;19.60;;
78148;SDS011;67396;42.664;23.382;2023-12-22T10:16:34;36.30;;;20.00;;
78148;SDS011;67396;42.664;23.382;2023-12-22T10:19:01;37.70;;;18.58;;
78148;SDS011;67396;42.664;23.382;2023-12-22T10:21:28;40.60;;;19.33;;
78148;SDS011;67396;42.664;23.382;2023-12-22T10:23:56;66.28;;;33.97;;
78148;SDS011;67396;42.664;23.382;2023-12-22T10:26:22;102.65;;;49.58;;
78148;SDS011;67396;42.664;23.382;2023-12-22T10:28:47;50.67;;;22.13;;
78148;SDS011;67396;42.664;23.382;2023-12-22T10:31:16;39.80;;;19.85;;
78148;SDS011;67396;42.664;23.382;2023-12-22T10:33:43;35.88;;;19.40;;
78148;SDS011;67396;42.664;23.382;2023-12-22T10:36:08;40.00;;;18.38;;
78148;SDS011;67396;42.664;23.382;2023-12-22T10:38:35;35.95;;;19.25;;
78148;SDS011;67396;42.664;23.382;2023-12-22T10:41:01;45.25;;;19.08;;
78148;SDS011;67396;42.664;23.382;2023-12-22T10:46:11;36.28;;;17.92;;
78148;SDS011;67396;42.664;23.382;2023-12-22T10:48:39;34.22;;;18.27;;
78148;SDS011;67396;42.664;23.382;2023-12-22T10:51:08;29.23;;;16.40;;
78148;SDS011;67396;42.664;23.382;2023-12-22T10:53:35;33.95;;;17.23;;
78148;SDS011;67396;42.664;23.382;2023-12-22T10:56:01;34.85;;;17.95;;
78148;SDS011;67396;42.664;23.382;2023-12-22T10:58:28;30.88;;;17.48;;
78148;SDS011;67396;42.664;23.382;2023-12-22T11:00:54;33.35;;;17.42;;
78148;SDS011;67396;42.664;23.382;2023-12-22T11:03:19;88.38;;;41.15;;
78148;SDS011;67396;42.664;23.382;2023-12-22T11:05:50;80.82;;;40.55;;
78148;SDS011;67396;42.664;23.382;2023-12-22T11:08:17;35.78;;;19.15;;
78148;SDS011;67396;42.664;23.382;2023-12-22T11:10:45;33.70;;;18.05;;
78148;SDS011;67396;42.664;23.382;2023-12-22T11:15:43;27.35;;;14.63;;
78148;SDS011;67396;42.664;23.382;2023-12-22T11:18:09;28.95;;;16.52;;
78148;SDS011;67396;42.664;23.382;2023-12-22T11:20:35;31.92;;;17.02;;
78148;SDS011;67396;42.664;23.382;2023-12-22T11:23:02;31.45;;;15.70;;
78148;SDS011;67396;42.664;23.382;2023-12-22T11:25:30;27.25;;;15.90;;
78148;SDS011;67396;42.664;23.382;2023-12-22T11:27:57;33.97;;;17.17;;
78148;SDS011;67396;42.664;23.382;2023-12-22T11:30:25;34.63;;;18.77;;
78148;SDS011;67396;42.664;23.382;2023-12-22T11:32:53;39.10;;;19.50;;
78148;SDS011;67396;42.664;23.382;2023-12-22T11:35:21;38.97;;;19.63;;
78148;SDS011;67396;42.664;23.382;2023-12-22T11:37:49;25.50;;;14.50;;
78148;SDS011;67396;42.664;23.382;2023-12-22T11:40:14;14.70;;;7.63;;
78148;SDS011;67396;42.664;23.382;2023-12-22T11:42:42;19.23;;;10.30;;
78148;SDS011;67396;42.664;23.382;2023-12-22T11:45:10;10.65;;;5.80;;
78148;SDS011;67396;42.664;23.382;2023-12-22T11:47:37;10.00;;;5.60;;
78148;SDS011;67396;42.664;23.382;2023-12-22T11:50:03;8.07;;;5.57;;
78148;SDS011;67396;42.664;23.382;2023-12-22T11:52:33;8.93;;;5.32;;
78148;SDS011;67396;42.664;23.382;2023-12-22T11:54:59;7.70;;;4.22;;
78148;SDS011;67396;42.664;23.382;2023-12-22T11:59:53;6.60;;;3.55;;
78148;SDS011;67396;42.664;23.382;2023-12-22T12:02:20;6.53;;;2.47;;
78148;SDS011;67396;42.664;23.382;2023-12-22T12:04:52;3.35;;;2.28;;
78148;SDS011;67396;42.664;23.382;2023-12-22T12:10:12;2.55;;;1.45;;
78148;SDS011;67396;42.664;23.382;2023-12-22T12:15:30;3.55;;;2.00;;
78148;SDS011;67396;42.664;23.382;2023-12-22T12:17:59;4.85;;;1.85;;
78148;SDS011;67396;42.664;23.382;2023-12-22T12:20:25;4.40;;;2.83;;
78148;SDS011;67396;42.664;23.382;2023-12-22T12:22:52;1.73;;;1.52;;
78148;SDS011;67396;42.664;23.382;2023-12-22T12:25:18;4.50;;;1.65;;
78148;SDS011;67396;42.664;23.382;2023-12-22T12:27:50;5.03;;;1.77;;
78148;SDS011;67396;42.664;23.382;2023-12-22T12:32:58;3.42;;;2.00;;
78148;SDS011;67396;42.664;23.382;2023-12-22T12:35:28;1.92;;;1.23;;
78148;SDS011;67396;42.664;23.382;2023-12-22T12:37:55;1.63;;;0.77;;
78148;SDS011;67396;42.664;23.382;2023-12-22T12:40:20;1.73;;;1.20;;
78148;SDS011;67396;42.664;23.382;2023-12-22T12:42:49;2.53;;;1.55;;
78148;SDS011;67396;42.664;23.382;2023-12-22T12:45:15;2.30;;;1.10;;
78148;SDS011;67396;42.664;23.382;2023-12-22T12:47:54;3.53;;;1.20;;
78148;SDS011;67396;42.664;23.382;2023-12-22T12:50:23;2.00;;;1.33;;
78148;SDS011;67396;42.664;23.382;2023-12-22T12:52:49;4.45;;;1.50;;
78148;SDS011;67396;42.664;23.382;2023-12-22T12:55:22;15.65;;;7.85;;
78148;SDS011;67396;42.664;23.382;2023-12-22T12:57:49;4.20;;;1.92;;
78148;SDS011;67396;42.664;23.382;2023-12-22T13:00:29;2.53;;;1.40;;
78148;SDS011;67396;42.664;23.382;2023-12-22T13:02:58;1.63;;;0.93;;
78148;SDS011;67396;42.664;23.382;2023-12-22T13:05:27;1.95;;;1.35;;
78148;SDS011;67396;42.664;23.382;2023-12-22T13:08:02;3.30;;;1.60;;
78148;SDS011;67396;42.664;23.382;2023-12-22T13:10:35;2.60;;;1.55;;
78148;SDS011;67396;42.664;23.382;2023-12-22T13:13:00;3.08;;;1.38;;
78148;SDS011;67396;42.664;23.382;2023-12-22T13:15:26;2.60;;;1.35;;
78148;SDS011;67396;42.664;23.382;2023-12-22T13:17:51;1.80;;;1.30;;
78148;SDS011;67396;42.664;23.382;2023-12-22T13:20:18;2.85;;;1.35;;
78148;SDS011;67396;42.664;23.382;2023-12-22T13:22:44;2.85;;;1.35;;
78148;SDS011;67396;42.664;23.382;2023-12-22T13:25:10;2.50;;;1.40;;
78148;SDS011;67396;42.664;23.382;2023-12-22T13:27:46;2.53;;;2.03;;
78148;SDS011;67396;42.664;23.382;2023-12-22T13:30:13;2.42;;;1.63;;
78148;SDS011;67396;42.664;23.382;2023-12-22T13:32:40;2.35;;;1.58;;
78148;SDS011;67396;42.664;23.382;2023-12-22T13:35:05;2.67;;;1.50;;
78148;SDS011;67396;42.664;23.382;2023-12-22T13:37:32;3.90;;;1.63;;
78148;SDS011;67396;42.664;23.382;2023-12-22T13:39:57;3.50;;;2.03;;
78148;SDS011;67396;42.664;23.382;2023-12-22T13:42:23;3.25;;;2.05;;
78148;SDS011;67396;42.664;23.382;2023-12-22T13:44:49;2.85;;;1.77;;
78148;SDS011;67396;42.664;23.382;2023-12-22T13:47:17;3.72;;;1.95;;
78148;SDS011;67396;42.664;23.382;2023-12-22T13:49:47;4.32;;;2.17;;
78148;SDS011;67396;42.664;23.382;2023-12-22T13:52:29;5.38;;;2.30;;
78148;SDS011;67396;42.664;23.382;2023-12-22T13:54:57;3.15;;;2.17;;
78148;SDS011;67396;42.664;23.382;2023-12-22T13:57:26;3.15;;;1.90;;
78148;SDS011;67396;42.664;23.382;2023-12-22T13:59:51;6.35;;;2.45;;
78148;SDS011;67396;42.664;23.382;2023-12-22T14:02:19;3.00;;;1.60;;
78148;SDS011;67396;42.664;23.382;2023-12-22T14:04:46;1.52;;;1.27;;
78148;SDS011;67396;42.664;23.382;2023-12-22T14:07:12;3.22;;;1.52;;
78148;SDS011;67396;42.664;23.382;2023-12-22T14:09:38;3.45;;;1.83;;
78148;SDS011;67396;42.664;23.382;2023-12-22T14:12:03;4.05;;;2.00;;
78148;SDS011;67396;42.664;23.382;2023-12-22T14:14:30;2.85;;;1.65;;
78148;SDS011;67396;42.664;23.382;2023-12-22T14:16:57;3.00;;;1.58;;
78148;SDS011;67396;42.664;23.382;2023-12-22T14:19:22;2.85;;;1.60;;
78148;SDS011;67396;42.664;23.382;2023-12-22T14:21:48;2.05;;;1.40;;
78148;SDS011;67396;42.664;23.382;2023-12-22T14:24:13;3.10;;;1.75;;
78148;SDS011;67396;42.664;23.382;2023-12-22T14:26:52;3.15;;;1.52;;
78148;SDS011;67396;42.664;23.382;2023-12-22T14:29:18;3.88;;;1.50;;
78148;SDS011;67396;42.664;23.382;2023-12-22T14:31:44;1.15;;;0.82;;
78148;SDS011;67396;42.664;23.382;2023-12-22T14:34:12;4.07;;;1.70;;
78148;SDS011;67396;42.664;23.382;2023-12-22T14:36:38;1.98;;;1.30;;
78148;SDS011;67396;42.664;23.382;2023-12-22T14:39:03;1.80;;;1.35;;
78148;SDS011;67396;42.664;23.382;2023-12-22T14:41:30;2.60;;;1.10;;